Terminal Aerodrome Forecast
Issued by NWS

Home | Current Version | Previous Version | Text Only | Print | Product List | Glossary On
Versions: 1 2 3 4 5 6 7 8 9 10 11 12 13 14 15 16 17 18 19 20
000
FTUS43 KMQT 102300
TAFCMX
TAF
KCMX 102338Z 1100/1124 10006KT P6SM SCT250
     FM110500 20007KT P6SM BKN200 WS010/22030KT
     FM111300 20010KT P6SM BKN100
     FM111700 21013G18KT P6SM VCSH OVC050=

USA.gov is the U.S. government's official web portal to all federal, state and local government web resources and services.